Time;durP1;ratioP1;P1;durP2;ratioP2;P2;SDS_P1;SDS_P2;PMS_P1;PMS_P2;Temp;Humidity;BMP_temperature;BMP_pressure;BME280_temperature;BME280_humidity;BME280_pressure;Samples;Min_cycle;Max_cycle;Signal;HPM_P1;HPM_P2
2021/01/20 00:00:51;;;;;;;2.70;2.50;;;4.60;99.90;;;3.12;100.00;99512.91;4966009;28;100188;-65
2021/01/20 00:03:19;;;;;;;2.53;2.33;;;4.70;99.90;;;3.18;100.00;99519.50;4965028;28;100639;-65
2021/01/20 00:05:45;;;;;;;3.23;2.67;;;4.80;99.90;;;3.12;100.00;99512.91;4966015;28;100715;-64
2021/01/20 00:08:12;;;;;;;2.53;2.33;;;4.60;99.90;;;3.18;100.00;99514.19;4966607;28;100179;-63
2021/01/20 00:10:38;;;;;;;2.77;2.20;;;4.80;99.90;;;3.13;100.00;99514.59;4980544;28;100186;-65
2021/01/20 00:13:04;;;;;;;2.93;2.63;;;4.70;99.90;;;3.23;100.00;99515.47;4965892;28;101302;-64
2021/01/20 00:15:31;;;;;;;2.57;2.37;;;4.80;99.90;;;3.24;100.00;99524.25;4965042;28;101081;-65
2021/01/20 00:17:57;;;;;;;3.37;2.30;;;4.70;99.90;;;3.28;100.00;99517.72;4966118;28;99989;-65
2021/01/20 00:20:25;;;;;;;3.07;2.77;;;4.80;99.90;;;3.24;100.00;99530.38;4966084;28;100110;-65
2021/01/20 00:22:52;;;;;;;3.10;2.50;;;4.70;99.90;;;3.30;100.00;99534.31;4966271;28;100999;-65
2021/01/20 00:25:19;;;;;;;3.13;2.47;;;4.80;99.90;;;3.39;100.00;99533.53;4965308;28;101556;-64
2021/01/20 00:27:46;;;;;;;2.53;2.33;;;4.90;99.90;;;3.35;100.00;99529.44;4965308;28;100148;-64
2021/01/20 00:30:14;;;;;;;3.60;3.00;;;4.90;99.90;;;3.39;100.00;99533.53;4965079;28;100239;-64
2021/01/20 00:32:41;;;;;;;5.00;2.63;;;5.00;99.90;;;3.39;100.00;99532.69;4965430;28;100154;-67
2021/01/20 00:35:10;;;;;;;3.63;2.83;;;5.00;99.90;;;3.48;100.00;99538.00;4964467;28;101262;-63
2021/01/20 00:37:37;;;;;;;2.70;2.50;;;5.00;99.90;;;3.45;100.00;99530.38;4966026;28;100354;-64
2021/01/20 00:40:07;;;;;;;3.13;2.43;;;5.20;99.90;;;3.50;100.00;99524.66;4965164;28;100134;-63
2021/01/20 00:42:34;;;;;;;3.10;2.80;;;5.10;99.90;;;3.47;100.00;99528.41;4964887;28;101561;-63
2021/01/20 00:45:11;;;;;;;3.10;2.63;;;5.10;99.90;;;3.52;100.00;99525.38;4965343;28;101364;-63
2021/01/20 00:47:37;;;;;;;3.67;3.20;;;5.20;99.90;;;3.50;100.00;99525.50;4965240;28;100231;-64
2021/01/20 00:50:06;;;;;;;3.97;2.97;;;5.20;99.90;;;3.58;100.00;99530.16;4965641;28;100035;-64
2021/01/20 00:52:32;;;;;;;3.20;2.47;;;5.30;99.90;;;3.58;100.00;99533.63;4964691;28;100660;-65
2021/01/20 00:54:59;;;;;;;3.23;2.93;;;5.30;99.90;;;3.60;100.00;99530.84;4979900;28;102913;-64
2021/01/20 00:57:26;;;;;;;3.07;2.77;;;5.30;99.90;;;3.60;100.00;99531.66;4980721;28;100160;-64
2021/01/20 00:59:53;;;;;;;3.60;2.60;;;5.30;99.90;;;3.61;100.00;99538.63;4979644;28;100207;-64
2021/01/20 01:02:22;;;;;;;3.53;3.03;;;5.30;99.90;;;3.61;100.00;99538.63;4965118;28;101279;-65
2021/01/20 01:04:50;;;;;;;3.20;2.87;;;5.30;99.90;;;3.60;100.00;99550.19;4968346;28;100467;-64
2021/01/20 01:07:16;;;;;;;3.43;2.90;;;5.40;99.90;;;3.59;100.00;99545.03;4980199;28;100127;-65
2021/01/20 01:09:43;;;;;;;3.90;3.33;;;5.30;99.90;;;3.64;100.00;99542.84;4980525;28;100339;-63
2021/01/20 01:12:27;;;;;;;3.03;2.73;;;5.30;99.90;;;3.62;100.00;99536.84;4979749;28;101652;-64
2021/01/20 01:14:54;;;;;;;3.67;3.10;;;5.20;99.90;;;3.65;100.00;99541.03;4978736;28;102463;-64
2021/01/20 01:17:31;;;;;;;3.37;3.07;;;5.30;99.90;;;3.61;100.00;99538.63;4962287;28;100220;-64
2021/01/20 01:19:59;;;;;;;2.90;2.67;;;5.30;99.90;;;3.65;100.00;99528.63;4979392;28;99986;-64
2021/01/20 01:22:26;;;;;;;3.40;3.10;;;5.40;99.90;;;3.66;100.00;99529.47;4965016;28;101554;-64
2021/01/20 01:24:52;;;;;;;3.90;3.20;;;5.40;99.90;;;3.68;100.00;99531.03;4962240;28;102515;-66
2021/01/20 01:27:19;;;;;;;2.97;2.67;;;5.40;99.90;;;3.72;100.00;99531.56;4963096;28;100299;-64
2021/01/20 01:29:48;;;;;;;3.43;2.70;;;5.50;99.90;;;3.72;100.00;99523.63;4962562;28;100275;-64
2021/01/20 01:32:35;;;;;;;3.40;3.10;;;5.30;99.90;;;3.67;100.00;99539.09;4964669;28;100840;-64
2021/01/20 01:35:06;;;;;;;3.10;2.80;;;5.40;99.90;;;3.60;100.00;99539.59;4979433;28;102808;-64
2021/01/20 01:37:32;;;;;;;3.60;3.30;;;5.40;99.90;;;3.60;100.00;99534.31;4964987;28;101180;-64
2021/01/20 01:40:09;;;;;;;3.10;2.73;;;5.40;99.90;;;3.59;100.00;99545.88;4964042;28;100217;-64
2021/01/20 01:42:56;;;;;;;5.60;4.03;;;5.40;99.90;;;3.57;100.00;99534.59;4964403;28;101249;-64
2021/01/20 01:45:25;;;;;;;3.80;3.40;;;5.40;99.90;;;3.59;100.00;99537.09;4977985;28;104006;-64
2021/01/20 01:47:51;;;;;;;4.10;3.70;;;5.40;99.90;;;3.59;100.00;99534.44;4962682;28;100317;-64
2021/01/20 01:50:18;;;;;;;5.17;3.07;;;5.30;99.90;;;3.56;100.00;99545.31;4978744;28;100403;-65
2021/01/20 01:52:45;;;;;;;3.73;3.30;;;5.40;99.90;;;3.52;100.00;99544.72;4978700;28;103332;-64
2021/01/20 01:55:56;;;;;;;5.60;3.47;;;5.30;99.90;;;3.56;100.00;99532.94;4950430;28;100534;-64
2021/01/20 01:58:41;;;;;;;3.77;3.33;;;5.20;99.90;;;3.52;100.00;99543.88;4962078;28;100307;-64
2021/01/20 02:01:15;;;;;;;4.17;3.53;;;5.30;99.90;;;3.52;100.00;99535.94;4962200;28;100318;-64
2021/01/20 02:03:51;;;;;;;4.30;3.90;;;5.00;99.90;;;3.47;100.00;99544.28;4979324;28;102882;-65
2021/01/20 02:06:20;;;;;;;3.93;3.47;;;5.20;99.90;;;3.48;100.00;99545.94;4978945;28;101977;-64
2021/01/20 02:08:54;;;;;;;4.70;3.83;;;5.10;99.90;;;3.45;100.00;99542.75;4978675;28;100329;-65
2021/01/20 02:11:51;;;;;;;4.50;3.60;;;5.30;99.90;;;3.44;100.00;99546.38;4979276;27;100109;-64
2021/01/20 02:14:29;;;;;;;4.33;3.30;;;5.20;99.90;;;3.40;100.00;99543.13;4982533;28;102656;-64
2021/01/20 02:17:24;;;;;;;3.27;2.97;;;5.20;99.90;;;3.40;100.00;99551.06;4982809;27;102153;-64
2021/01/20 02:20:20;;;;;;;4.83;3.60;;;5.10;99.90;;;3.40;100.00;99550.22;4982232;28;100143;-64
2021/01/20 02:22:51;;;;;;;3.57;3.23;;;5.10;99.90;;;3.42;100.00;99540.38;4967376;28;100153;-64
2021/01/20 02:26:14;;;;;;;3.70;2.90;;;5.10;99.90;;;3.38;100.00;99537.13;4965360;28;100646;-63
2021/01/20 02:29:18;;;;;;;5.13;2.80;;;5.20;99.90;;;3.33;100.00;99542.00;4966908;27;100806;-63
2021/01/20 02:31:55;;;;;;;3.60;3.07;;;5.80;99.90;;;3.26;100.00;99535.53;4982640;27;100062;-63
2021/01/20 02:34:25;;;;;;;3.87;2.97;;;4.90;99.90;;;3.32;100.00;99535.03;4982583;28;100354;-63
2021/01/20 02:36:53;;;;;;;4.33;2.70;;;5.00;99.90;;;3.33;100.00;99523.47;4981262;28;103223;-63
2021/01/20 02:39:53;;;;;;;3.53;2.87;;;5.00;99.90;;;3.34;100.00;99530.41;4965051;28;100389;-63
2021/01/20 02:42:28;;;;;;;3.40;3.00;;;4.90;99.90;;;3.32;100.00;99531.53;4965360;28;99987;-64
2021/01/20 02:45:04;;;;;;;4.03;2.83;;;4.90;99.90;;;3.25;100.00;99515.34;4966847;28;100172;-63
2021/01/20 02:47:47;;;;;;;3.13;2.50;;;4.90;99.90;;;3.29;100.00;99515.94;4982160;28;103123;-63
2021/01/20 02:50:19;;;;;;;4.67;2.30;;;4.90;99.90;;;3.32;100.00;99505.09;4964883;28;102616;-63
2021/01/20 02:52:58;;;;;;;3.87;2.80;;;4.80;99.90;;;3.24;100.00;99509.22;4981340;28;100158;-63
2021/01/20 02:55:49;;;;;;;3.57;2.83;;;5.00;99.90;;;3.26;100.00;99501.16;4965518;28;100100;-64
2021/01/20 02:58:37;;;;;;;3.30;2.90;;;4.80;99.90;;;3.26;100.00;99501.16;4963669;28;100296;-63
2021/01/20 03:01:22;;;;;;;3.27;2.87;;;4.90;99.90;;;3.26;100.00;99493.22;4965609;28;100521;-62
2021/01/20 03:03:51;;;;;;;3.10;2.53;;;4.80;99.90;;;3.23;100.00;99496.13;4963251;28;100469;-63
2021/01/20 03:06:18;;;;;;;2.50;2.30;;;4.80;99.90;;;3.21;100.00;99503.38;4965746;28;100411;-63
2021/01/20 03:08:45;;;;;;;2.90;2.37;;;4.70;99.90;;;3.20;100.00;99507.81;4963789;28;100808;-63
2021/01/20 03:11:12;;;;;;;4.00;2.27;;;4.90;99.90;;;3.27;100.00;99507.28;4965360;28;100529;-63
2021/01/20 03:13:42;;;;;;;2.63;2.13;;;4.70;99.90;;;3.23;100.00;99502.25;4965972;28;100331;-63
2021/01/20 03:16:08;;;;;;;3.53;1.97;;;4.80;99.90;;;3.21;100.00;99498.09;4965810;28;100033;-62
2021/01/20 03:18:34;;;;;;;3.13;2.30;;;4.80;99.90;;;3.20;100.00;99504.34;4963808;28;100780;-64
2021/01/20 03:21:02;;;;;;;4.10;1.90;;;4.80;99.90;;;3.17;100.00;99502.78;4965272;28;100100;-63
2021/01/20 03:23:28;;;;;;;4.07;1.90;;;4.70;99.90;;;3.21;100.00;99495.44;4963787;28;100383;-63
2021/01/20 03:25:56;;;;;;;2.90;1.87;;;4.70;99.90;;;3.18;100.00;99491.25;4965336;28;100291;-63
2021/01/20 03:28:23;;;;;;;3.07;1.90;;;4.80;99.90;;;3.17;100.00;99488.75;4963277;28;100670;-63
2021/01/20 03:30:50;;;;;;;3.37;1.77;;;4.70;99.90;;;3.19;100.00;99482.34;4964636;28;100437;-62
2021/01/20 03:33:16;;;;;;;3.53;1.80;;;4.70;99.90;;;3.17;100.00;99484.28;4964471;28;99909;-63
2021/01/20 03:35:43;;;;;;;2.87;1.90;;;4.70;99.90;;;3.20;100.00;99476.09;4964530;28;100104;-63
2021/01/20 03:38:23;;;;;;;3.47;1.67;;;4.80;99.90;;;3.17;100.00;99478.16;4963169;28;101102;-63
2021/01/20 03:40:49;;;;;;;2.50;1.60;;;4.70;99.90;;;3.19;100.00;99474.44;4965046;28;100221;-62
2021/01/20 03:43:15;;;;;;;1.80;1.50;;;4.70;99.90;;;3.23;100.00;99467.88;4964007;28;100238;-63
2021/01/20 03:45:42;;;;;;;3.17;1.87;;;4.70;99.90;;;3.25;100.00;99465.94;4965017;28;100060;-62
2021/01/20 03:48:08;;;;;;;1.90;1.27;;;5.80;99.90;;;3.30;100.00;99472.66;4963357;28;100708;-63
2021/01/20 03:50:35;;;;;;;2.17;1.50;;;5.10;99.90;;;3.30;100.00;99459.44;4964240;28;100783;-63
2021/01/20 03:53:01;;;;;;;2.77;1.40;;;4.70;99.90;;;3.33;100.00;99461.84;4963500;28;100173;-64
2021/01/20 03:55:28;;;;;;;1.27;1.17;;;4.60;99.90;;;3.33;100.00;99460.03;4964165;28;100353;-63
2021/01/20 03:57:55;;;;;;;1.40;1.30;;;4.70;99.90;;;3.29;100.00;99457.75;4963160;28;101068;-63
2021/01/20 04:00:22;;;;;;;2.13;1.33;;;4.60;99.90;;;3.30;100.00;99456.81;4963966;28;99937;-64
2021/01/20 04:02:48;;;;;;;3.83;1.50;;;5.70;99.90;;;3.23;100.00;99441.44;4966590;28;100092;-64
2021/01/20 04:05:24;;;;;;;2.47;1.10;;;4.60;99.90;;;3.13;100.00;99443.22;4966131;28;100398;-63
2021/01/20 04:07:50;;;;;;;1.77;1.30;;;4.60;99.90;;;3.14;100.00;99444.06;4966392;28;100822;-63
2021/01/20 04:10:17;;;;;;;2.87;1.50;;;4.40;99.90;;;3.15;100.00;99446.56;4966292;28;101371;-63
2021/01/20 04:12:44;;;;;;;1.80;1.37;;;4.50;99.90;;;3.20;100.00;99443.53;4966322;28;100199;-63
2021/01/20 04:15:11;;;;;;;1.90;1.33;;;4.50;99.90;;;3.08;100.00;99441.94;4965820;28;100214;-64
2021/01/20 04:17:38;;;;;;;1.57;1.20;;;4.40;99.90;;;3.09;100.00;99439.16;4965270;28;101554;-64
2021/01/20 04:20:07;;;;;;;2.23;1.60;;;5.10;99.90;;;3.07;100.00;99441.13;4965594;28;100320;-63
2021/01/20 04:22:34;;;;;;;2.83;1.70;;;4.30;99.90;;;3.00;100.00;99445.22;4966494;28;100259;-64
2021/01/20 04:25:00;;;;;;;3.03;1.70;;;4.40;99.90;;;2.89;100.00;99448.78;4966350;28;100015;-62
2021/01/20 04:27:28;;;;;;;1.90;1.57;;;4.30;99.90;;;2.93;100.00;99437.97;4965719;28;101283;-63
2021/01/20 04:29:55;;;;;;;1.83;1.40;;;4.10;99.90;;;2.94;100.00;99440.47;4965988;28;101090;-63
2021/01/20 04:32:22;;;;;;;2.93;1.57;;;4.00;99.90;;;2.88;100.00;99430.41;4980062;28;100111;-62
2021/01/20 04:34:48;;;;;;;3.63;1.67;;;4.10;99.90;;;2.86;100.00;99435.81;4965275;28;100206;-62
2021/01/20 04:37:15;;;;;;;2.53;1.70;;;4.10;99.90;;;2.80;100.00;99439.00;4965349;28;100907;-60
2021/01/20 04:39:41;;;;;;;2.00;1.80;;;4.10;99.90;;;2.79;100.00;99437.31;4965061;28;99930;-62
2021/01/20 04:42:08;;;;;;;2.40;1.50;;;4.10;99.90;;;2.70;100.00;99437.28;4963731;28;99898;-62
2021/01/20 04:44:34;;;;;;;2.47;1.77;;;3.90;99.90;;;2.61;100.00;99430.94;4965525;28;100257;-63
2021/01/20 04:47:05;;;;;;;1.73;1.30;;;4.10;99.90;;;2.57;100.00;99424.25;4964652;28;100990;-63
2021/01/20 04:49:34;;;;;;;1.73;1.30;;;4.00;99.90;;;2.57;100.00;99418.97;4965711;28;100585;-62
2021/01/20 04:52:03;;;;;;;3.70;1.93;;;4.00;99.90;;;2.59;100.00;99422.31;4965850;28;100383;-61
2021/01/20 04:54:30;;;;;;;3.50;1.20;;;3.80;99.90;;;2.69;100.00;99412.66;4965788;28;100049;-62
2021/01/20 04:56:57;;;;;;;3.17;1.30;;;3.80;99.90;;;2.61;100.00;99414.25;4964224;28;100935;-63
2021/01/20 04:59:28;;;;;;;2.50;1.47;;;3.90;99.90;;;2.72;100.00;99411.56;4964694;28;100471;-62
2021/01/20 05:01:56;;;;;;;1.90;1.40;;;4.90;99.90;;;2.84;100.00;99418.44;4965510;28;100139;-63
2021/01/20 05:04:23;;;;;;;1.80;1.40;;;3.80;99.90;;;2.67;100.00;99406.66;4965009;28;100241;-62
2021/01/20 05:06:50;;;;;;;1.53;1.20;;;3.80;99.90;;;2.69;100.00;99404.72;4964423;28;100904;-63
2021/01/20 05:09:17;;;;;;;2.70;1.40;;;3.80;99.90;;;2.74;100.00;99405.16;4979221;28;103319;-62
2021/01/20 05:11:45;;;;;;;2.57;1.27;;;3.90;99.90;;;2.89;100.00;99392.47;4964235;28;100121;-60
2021/01/20 05:14:13;;;;;;;1.77;1.20;;;3.80;99.90;;;2.95;100.00;99394.59;4964704;28;99970;-61
2021/01/20 05:16:41;;;;;;;2.33;1.20;;;3.90;99.90;;;2.91;100.00;99392.34;4964214;28;101540;-61
2021/01/20 05:19:08;;;;;;;1.50;1.23;;;3.90;99.90;;;2.92;100.00;99392.22;4964808;28;101543;-62
2021/01/20 05:21:35;;;;;;;3.53;1.27;;;4.00;99.90;;;3.10;100.00;99395.06;4964190;28;101551;-62
2021/01/20 05:24:22;;;;;;;1.43;1.00;;;4.10;99.90;;;3.01;100.00;99390.56;4965609;28;100182;-62
2021/01/20 05:26:51;;;;;;;1.90;1.40;;;4.00;99.90;;;3.08;100.00;99383.81;4964878;28;100562;-62
2021/01/20 05:29:18;;;;;;;1.30;1.20;;;4.00;99.90;;;2.97;100.00;99389.19;4964686;28;100469;-61
2021/01/20 05:31:45;;;;;;;2.50;1.23;;;4.10;99.90;;;3.01;100.00;99386.13;4963902;28;100052;-62
2021/01/20 05:34:26;;;;;;;3.03;1.60;;;4.10;99.90;;;3.04;100.00;99385.88;4964927;28;99975;-60
2021/01/20 05:37:09;;;;;;;1.37;1.20;;;4.10;99.90;;;2.96;100.00;99380.41;4964250;28;100266;-62
2021/01/20 05:39:37;;;;;;;1.97;1.63;;;4.00;99.90;;;2.92;100.00;99384.28;4964525;28;100670;-61
2021/01/20 05:42:06;;;;;;;3.23;2.20;;;4.10;99.90;;;2.97;100.00;99384.69;4964584;28;100257;-62
2021/01/20 05:44:34;;;;;;;2.17;1.57;;;4.20;99.90;;;2.88;100.00;99381.06;4964961;28;99976;-62
2021/01/20 05:47:08;;;;;;;2.97;1.50;;;3.90;99.90;;;3.01;100.00;99367.63;4965632;28;101053;-63
2021/01/20 05:49:34;;;;;;;1.97;1.50;;;4.10;99.90;;;3.08;100.00;99368.78;4968970;28;101089;-63
2021/01/20 05:52:02;;;;;;;2.20;1.43;;;4.10;99.90;;;3.10;100.00;99368.63;4968137;28;100243;-62
2021/01/20 05:54:37;;;;;;;1.97;1.40;;;4.10;99.90;;;3.07;100.00;99355.69;4978319;28;100187;-61
2021/01/20 05:57:15;;;;;;;2.70;1.67;;;4.10;99.90;;;2.86;100.00;99345.16;4962481;28;101596;-61
2021/01/20 05:59:44;;;;;;;2.00;1.50;;;4.10;99.90;;;2.81;100.00;99340.28;4967950;28;99791;-61
2021/01/20 06:02:12;;;;;;;3.57;1.80;;;4.10;99.90;;;2.72;100.00;99354.25;4968069;28;99969;-60
2021/01/20 06:04:39;;;;;;;3.20;1.93;;;4.10;99.90;;;2.63;100.00;99347.13;4967809;28;99995;-61
2021/01/20 06:07:08;;;;;;;2.13;1.60;;;4.00;99.90;;;2.66;100.00;99364.53;4966828;28;101956;-61
2021/01/20 06:09:37;;;;;;;2.93;1.40;;;3.80;99.90;;;2.64;100.00;99362.00;4968045;28;100989;-63
2021/01/20 06:12:05;;;;;;;1.40;1.10;;;3.90;99.90;;;2.60;100.00;99365.88;4967660;28;100236;-61
2021/01/20 06:14:31;;;;;;;2.67;1.40;;;3.70;99.90;;;2.48;100.00;99374.81;4968756;28;100043;-61
2021/01/20 06:17:14;;;;;;;1.53;1.33;;;3.70;99.90;;;2.64;100.00;99372.56;4966976;28;101454;-63
2021/01/20 06:19:46;;;;;;;2.03;1.10;;;3.70;99.90;;;2.54;100.00;99376.97;4967382;28;100551;-62
2021/01/20 06:22:17;;;;;;;1.37;1.27;;;3.70;99.90;;;2.55;100.00;99376.00;4967329;28;100076;-62
2021/01/20 06:24:48;;;;;;;1.90;1.20;;;3.60;99.90;;;2.51;100.00;99366.66;4967326;28;99990;-63
2021/01/20 06:27:24;;;;;;;3.07;1.40;;;3.60;99.90;;;2.72;100.00;99370.13;4967358;28;101285;-63
2021/01/20 06:29:59;;;;;;;2.73;1.50;;;3.70;99.90;;;2.56;100.00;99369.75;4967274;28;100442;-62
2021/01/20 06:32:27;;;;;;;1.90;1.50;;;3.60;99.90;;;2.47;100.00;99363.44;4967796;28;99891;-62
2021/01/20 06:34:55;;;;;;;2.23;1.67;;;3.70;99.90;;;2.44;100.00;99374.28;4966838;28;100121;-62
2021/01/20 06:37:40;;;;;;;2.97;1.57;;;3.70;99.90;;;2.36;100.00;99371.41;4967449;28;100609;-61
2021/01/20 06:40:40;;;;;;;3.33;1.30;;;3.60;99.90;;;2.19;100.00;99376.44;4966855;28;100065;-62
2021/01/20 06:43:42;;;;;;;1.50;1.40;;;3.50;99.90;;;2.19;100.00;99373.81;4966423;28;100231;-61
2021/01/20 06:46:27;;;;;;;1.67;1.30;;;3.30;99.90;;;2.12;100.00;99378.75;4980769;27;100356;-62
2021/01/20 06:49:11;;;;;;;2.33;1.30;;;3.40;99.90;;;2.16;100.00;99375.72;4979651;28;103036;-61
2021/01/20 06:51:40;;;;;;;2.93;1.63;;;3.20;99.90;;;2.27;100.00;99385.41;4965088;28;100641;-62
2021/01/20 06:54:14;;;;;;;2.43;1.87;;;3.30;99.90;;;2.15;100.00;99383.78;4966065;28;100156;-62
2021/01/20 06:56:47;;;;;;;3.57;1.80;;;3.20;99.90;;;2.15;100.00;99389.03;4980016;28;100009;-62
2021/01/20 06:59:26;;;;;;;2.10;1.60;;;3.20;99.90;;;2.13;100.00;99388.34;4965788;28;101075;-62
2021/01/20 07:02:14;;;;;;;4.60;2.80;;;3.20;99.90;;;2.17;100.00;99380.03;4965949;28;101659;-62
2021/01/20 07:05:06;;;;;;;3.43;2.27;;;3.20;99.90;;;1.90;100.00;99381.47;4966791;28;100608;-62
2021/01/20 07:07:54;;;;;;;3.67;2.33;;;3.10;99.90;;;1.67;100.00;99381.53;4966768;28;99997;-62
2021/01/20 07:10:26;;;;;;;4.93;2.23;;;3.00;99.90;;;1.47;100.00;99378.84;4965511;28;101122;-63
2021/01/20 07:13:17;;;;;;;3.57;2.80;;;4.30;99.90;;;1.43;100.00;99383.50;4963179;28;101238;-62
2021/01/20 07:15:57;;;;;;;5.13;3.27;;;3.00;99.90;;;1.84;100.00;99374.06;4964810;28;100035;-62
2021/01/20 07:18:25;;;;;;;6.53;4.30;;;3.00;99.90;;;1.94;100.00;99381.09;4966082;28;100208;-61
2021/01/20 07:20:53;;;;;;;7.57;3.87;;;3.00;99.90;;;1.77;100.00;99371.09;4964980;28;101203;-62
2021/01/20 07:23:21;;;;;;;6.00;4.30;;;3.00;99.90;;;2.00;100.00;99382.38;4964562;28;101117;-63
2021/01/20 07:25:49;;;;;;;2.47;1.93;;;3.00;99.90;;;2.03;100.00;99379.50;4964934;28;100005;-62
2021/01/20 07:28:18;;;;;;;3.70;2.40;;;3.10;99.90;;;1.87;100.00;99387.84;4965096;28;99912;-62
2021/01/20 07:30:44;;;;;;;4.07;2.90;;;3.10;99.90;;;1.86;100.00;99386.16;4964648;28;101525;-62
2021/01/20 07:33:22;;;;;;;14.93;8.83;;;3.20;99.90;;;1.96;100.00;99389.75;4965761;28;101104;-63
2021/01/20 07:35:50;;;;;;;14.17;7.70;;;3.00;99.90;;;2.43;100.00;99388.44;4954704;28;100143;-63
2021/01/20 07:38:17;;;;;;;11.03;5.63;;;3.20;99.90;;;2.80;100.00;99387.97;4965876;28;100022;-62
2021/01/20 07:40:45;;;;;;;7.70;4.23;;;3.30;99.90;;;3.21;100.00;99381.78;4942820;28;655820;-62
2021/01/20 07:43:23;;;;;;;4.17;2.87;;;4.00;99.90;;;3.58;100.00;99384.66;4965685;28;101687;-62
2021/01/20 07:45:51;;;;;;;2.87;1.70;;;3.70;99.90;;;3.89;100.00;99370.38;4966462;28;100163;-62
2021/01/20 07:48:28;;;;;;;1.93;1.53;;;3.90;99.90;;;4.31;100.00;99378.03;4966808;28;100234;-62
2021/01/20 07:50:54;;;;;;;1.53;1.40;;;4.20;99.90;;;4.50;100.00;99375.34;4966575;28;101773;-62
2021/01/20 07:53:21;;;;;;;2.30;1.50;;;4.50;99.90;;;4.66;100.00;99372.13;4966133;28;101328;-62
2021/01/20 07:55:53;;;;;;;2.03;1.43;;;4.90;99.90;;;4.91;100.00;99375.97;4966285;28;100164;-62
2021/01/20 07:58:27;;;;;;;1.57;0.97;;;5.30;99.90;;;4.92;100.00;99369.69;4967397;28;100056;-62
2021/01/20 08:00:54;;;;;;;1.90;1.40;;;5.50;99.90;;;5.14;100.00;99373.78;4966226;28;101159;-63
2021/01/20 08:03:32;;;;;;;2.93;1.33;;;5.50;99.90;;;5.47;100.00;99373.22;4965724;28;101723;-62
2021/01/20 08:06:06;;;;;;;1.80;1.07;;;5.70;99.90;;;5.43;100.00;99363.06;4965419;28;100146;-62
2021/01/20 08:08:33;;;;;;;3.00;1.17;;;6.10;99.90;;;5.62;100.00;99366.41;4966170;28;100062;-63
2021/01/20 08:11:02;;;;;;;1.57;1.10;;;6.30;99.90;;;5.66;100.00;99367.81;4964799;28;100851;-63
2021/01/20 08:13:31;;;;;;;1.63;1.17;;;6.50;99.90;;;5.87;100.00;99356.06;4966328;28;101098;-63
2021/01/20 08:15:58;;;;;;;1.57;1.37;;;7.70;99.90;;;5.82;100.00;99358.31;4965683;28;100337;-62
2021/01/20 08:18:25;;;;;;;2.17;1.33;;;7.00;99.90;;;6.10;100.00;99352.00;4966033;28;100268;-62
2021/01/20 08:20:52;;;;;;;2.53;1.43;;;7.30;99.90;;;6.29;100.00;99348.34;4966018;28;100528;-62
2021/01/20 08:23:43;;;;;;;1.53;0.80;;;7.50;99.90;;;6.48;100.00;99356.13;4965977;28;100248;-62
2021/01/20 08:26:09;;;;;;;2.20;1.30;;;7.80;99.60;;;6.57;100.00;99347.22;4966469;28;100112;-62
2021/01/20 08:28:36;;;;;;;1.97;1.30;;;7.80;99.90;;;6.70;100.00;99355.63;4966241;28;100135;-62
2021/01/20 08:31:20;;;;;;;2.20;1.90;;;8.10;98.70;;;6.76;100.00;99368.31;4971237;28;100902;-62
2021/01/20 08:33:46;;;;;;;2.17;1.70;;;8.30;97.30;;;6.87;100.00;99359.22;4970098;28;100402;-63
2021/01/20 08:36:23;;;;;;;1.63;1.50;;;8.60;95.30;;;6.87;100.00;99367.22;4964623;28;100043;-62
2021/01/20 08:39:07;;;;;;;2.10;1.40;;;8.60;94.60;;;6.99;100.00;99357.97;4965827;28;100074;-63
2021/01/20 08:41:33;;;;;;;1.20;1.10;;;8.90;93.10;;;7.01;100.00;99363.13;4964101;28;101115;-63
2021/01/20 08:44:16;;;;;;;1.37;1.17;;;9.10;92.00;;;7.10;100.00;99367.50;4965130;28;100417;-63
2021/01/20 08:46:42;;;;;;;1.30;1.00;;;10.00;93.00;;;7.20;100.00;99373.53;4979618;28;100422;-63
2021/01/20 08:49:09;;;;;;;3.73;1.80;;;9.20;91.20;;;7.30;100.00;99384.88;4966081;28;100340;-63
2021/01/20 08:51:35;;;;;;;4.47;1.30;;;9.40;91.90;;;7.32;100.00;99382.06;4964572;28;101557;-64
2021/01/20 08:54:11;;;;;;;2.90;1.50;;;9.50;91.00;;;7.34;100.00;99385.41;4964590;28;101150;-63
2021/01/20 08:56:37;;;;;;;1.80;1.40;;;9.60;87.80;;;7.31;100.00;99385.72;4964012;28;100103;-63
2021/01/20 08:59:04;;;;;;;3.00;1.30;;;9.80;87.50;;;7.11;100.00;99387.78;4964879;28;100419;-63
2021/01/20 09:01:31;;;;;;;2.53;1.53;;;9.60;85.70;;;7.26;100.00;99388.03;4964955;28;101243;-63
2021/01/20 09:03:59;;;;;;;2.30;1.50;;;10.80;85.60;;;7.32;100.00;99390.06;4964341;28;100703;-63
2021/01/20 09:06:27;;;;;;;3.37;2.03;;;9.70;84.70;;;7.36;100.00;99400.22;4965150;28;100066;-64
2021/01/20 09:08:54;;;;;;;2.77;1.30;;;9.90;84.60;;;7.40;100.00;99395.44;4965091;28;100015;-63
2021/01/20 09:11:21;;;;;;;3.10;1.27;;;10.10;83.60;;;7.42;100.00;99388.94;4964303;28;100205;-63
2021/01/20 09:13:49;;;;;;;1.50;1.40;;;10.10;82.30;;;7.35;100.00;99393.25;4964912;28;100700;-63
2021/01/20 09:16:16;;;;;;;1.83;1.23;;;10.10;82.20;;;7.15;100.00;99399.78;4964762;28;99894;-63
2021/01/20 09:18:43;;;;;;;2.50;1.40;;;10.00;79.90;;;7.12;100.00;99400.94;4965544;28;100214;-63
2021/01/20 09:21:15;;;;;;;1.50;1.40;;;11.00;80.60;;;7.31;100.00;99389.22;4963826;28;101418;-63
2021/01/20 09:23:42;;;;;;;1.83;1.20;;;9.90;78.70;;;7.31;100.00;99391.03;4964631;28;100970;-63
2021/01/20 09:26:09;;;;;;;1.20;0.90;;;10.00;80.20;;;7.33;100.00;99399.72;4965085;28;100167;-63
2021/01/20 09:28:36;;;;;;;1.47;1.37;;;9.80;80.60;;;7.31;100.00;99391.03;4965040;28;100113;-63
2021/01/20 09:31:03;;;;;;;4.77;1.43;;;9.80;79.90;;;7.36;100.00;99400.22;4964560;28;101424;-63
2021/01/20 09:33:29;;;;;;;1.67;1.37;;;9.80;81.50;;;7.48;100.00;99408.75;4964246;28;101447;-62
2021/01/20 09:35:57;;;;;;;1.53;1.10;;;9.90;80.10;;;7.49;100.00;99395.31;4965460;28;100256;-62
2021/01/20 09:38:23;;;;;;;1.67;1.17;;;11.20;80.00;;;7.46;100.00;99400.09;4964706;28;100209;-63
2021/01/20 09:40:49;;;;;;;3.40;1.33;;;10.10;78.40;;;7.49;100.00;99400.63;4964311;28;101367;-63
2021/01/20 09:43:20;;;;;;;1.53;1.23;;;10.10;79.60;;;7.46;100.00;99405.44;4964097;28;101137;-63
2021/01/20 09:45:47;;;;;;;2.40;1.33;;;10.70;80.00;;;7.41;100.00;99405.09;4963739;28;100087;-63
2021/01/20 09:48:15;;;;;;;3.73;1.27;;;9.70;78.40;;;7.40;100.00;99398.94;4964479;28;100099;-63
2021/01/20 09:50:44;;;;;;;4.57;1.30;;;8.80;79.00;;;7.44;100.00;99388.78;4964634;28;100758;-63
2021/01/20 09:53:12;;;;;;;2.00;1.40;;;9.80;79.50;;;7.72;100.00;99397.38;4964473;28;100493;-62
2021/01/20 09:55:39;;;;;;;7.40;2.10;;;9.90;80.50;;;7.93;100.00;99387.94;4963556;28;100118;-63
2021/01/20 09:58:05;;;;;;;1.73;1.20;;;10.00;79.20;;;8.11;100.00;99385.16;4964894;28;100681;-61
2021/01/20 10:00:34;;;;;;;3.13;1.50;;;11.00;78.50;;;8.30;100.00;99386.66;4978369;28;101196;-63
2021/01/20 10:03:02;;;;;;;7.70;1.40;;;10.50;79.60;;;8.30;100.00;99387.50;4979394;28;101424;-64
2021/01/20 10:05:28;;;;;;;1.60;1.10;;;10.80;77.80;;;8.29;100.00;99385.00;4963829;28;100080;-63
2021/01/20 10:07:55;;;;;;;1.97;1.60;;;11.00;76.60;;;8.24;100.00;99390.84;4964176;28;100286;-63
2021/01/20 10:10:22;;;;;;;1.57;1.20;;;11.40;74.50;;;8.19;100.00;99385.16;4963806;28;101112;-63
2021/01/20 10:12:53;;;;;;;2.90;1.33;;;11.00;74.30;;;7.99;100.00;99381.13;4964753;28;100532;-63
2021/01/20 10:15:20;;;;;;;3.00;1.30;;;11.10;73.20;;;7.94;100.00;99388.78;4964245;28;100239;-63
2021/01/20 10:17:48;;;;;;;2.50;1.27;;;10.50;74.00;;;7.90;100.00;99388.28;4964707;28;100113;-63
2021/01/20 10:20:15;;;;;;;2.23;1.30;;;10.60;75.20;;;7.84;100.00;99377.44;4963931;28;101422;-63
2021/01/20 10:22:41;;;;;;;2.43;1.60;;;10.60;75.80;;;7.82;100.00;99384.75;4964731;28;100730;-62
2021/01/20 10:25:09;;;;;;;2.07;1.53;;;10.60;75.40;;;7.84;100.00;99385.44;4964007;28;100146;-64
2021/01/20 10:27:37;;;;;;;1.63;1.00;;;10.30;76.50;;;7.84;100.00;99378.28;4964961;28;100094;-64
2021/01/20 10:30:06;;;;;;;3.37;1.17;;;10.20;76.90;;;7.88;100.00;99376.97;4963391;28;101402;-62
2021/01/20 10:32:32;;;;;;;1.17;0.90;;;10.10;77.40;;;7.82;100.00;99382.09;4964066;28;101274;-62
2021/01/20 10:34:58;;;;;;;1.00;0.70;;;10.40;76.90;;;7.81;100.00;99359.13;4966840;28;100044;-63